Airfield :
LOGIN :

Register | Disclaimer

   EN    FR    IT 

 










Legend :    VFR   Marginal VFR   IFR   Intensive IFR   Very Intensive IFR
Visi :
Ceiling :
>= 8 km
>= 3000ft
5 to 8 km
1000 to 3000 ft
1500m to 5 km
500 to 1000 ft
800 to 1500m
200 to 500 ft
< 800m
< 200 ft
Symbols :   Thunderstorms  Fog  Heavy snow  Heavy precipitations  Wind > 20 kt
SIGMETs :     Misc.  Thunderstorms  Icing  Turbulence  Mountain Waves  Volcanic Ashes






- Airport Elevation : 243 ft
- IATA code : HOV


ENOV - Ørsta-Volda , Hovden

CURRENT METAR :
  • 131450Z 00000KT 3000 -SN VV013 00/M00 Q0997 RMK WIND 2175FT 11006KT

EXPIRED METARs :
  • 131420Z 00000KT 4000 -SN VV012 00/M00 Q0997 RMK WIND 2175FT 10006KT
  • 131350Z VRB01KT 5000 -SN FEW001 BKN009 00/M00 Q0997 RMK WIND 2175FT 10002KT
  • 131320Z VRB01KT 2000 SN BKN006 00/M00 Q0996 RMK WIND 2175FT 09003KT
  • 131250Z VRB01KT 1500 SN BKN005 00/M00 Q0996 RMK WIND 2175FT 05006KT
  • 131220Z 00000KT 1300 SN VV003 00/M00 Q0996 RMK WIND 2175FT 00000KT

TAF N/A



MET'MAP, your aeronautical weather chart ! - Copyright ORBIFLY December 2007 - Disclaimer

ORBIFLY MET'MAP TEAM :

Programming & Development : Alexandra Zaïnal
Concept & Development : Baudouin d'Aumeries
Co-Development & Prog : Marc-Olivier Méhu
Technical & hardware support : Manuel Goepfert

Contact : metmap@orbifly.com




SOURCES & CREDITS :

   NOAA